Latest Weather Observations for Nowra

IDN60901

Issued at 9:51 pm EST Monday 25 July 2016 (issued every 10 minutes, with the page automatically refreshed every 10 minutes)

About weather observations | Map of Canberra area stations | Latest observations for Canberra area | Other Formats
Station Details ID: 068072 Name: NOWRA RAN AIR STATION AWS Lat: -34.95 Lon: 150.54 Height: 109.0 m
Data from the previous 72 hours. | See also: Recent months at Nowra
Date/Time
EST
Temp
°C
App
Temp
°C
Dew
Point
°C
Rel
Hum
%
Delta-T
°C
Wind Press
QNH
hPa
Press
MSL
hPa
Rain since
9am
mm
Dir  Spd
km/h
Gust
km/h
Spd
kts
Gust
kts
25/09:30pm 11.6 1.6 1.3 49 4.4 WNW 43 69 23 37 1010.0 - 0.0
25/09:00pm 11.4 1.5 2.7 55 3.8 WNW 44 65 24 35 1010.4 1010.5 0.0
25/08:30pm 11.3 6.0 3.1 57 3.6 NW 20 46 11 25 1010.7 - 0.0
25/08:17pm 11.4 4.6 3.2 57 3.6 NW 28 46 15 25 1010.9 - 0.0
25/08:00pm 11.1 6.1 3.4 59 3.4 NW 19 33 10 18 1010.9 - 0.0
25/07:30pm 11.5 6.9 3.5 58 3.6 WNW 17 28 9 15 1011.0 - 0.0
25/07:00pm 11.7 6.7 3.5 57 3.6 NNW 19 39 10 21 1010.7 - 0.0
25/06:30pm 11.7 6.5 3.5 57 3.6 NW 20 33 11 18 1010.6 - 0.0
25/06:00pm 11.7 6.1 3.5 57 3.7 WNW 22 33 12 18 1010.4 1010.5 0.0
25/05:30pm 11.6 6.6 3.4 57 3.6 WNW 19 28 10 15 1010.3 - 0.0
25/05:00pm 11.8 5.8 3.1 55 3.8 NW 24 37 13 20 1010.6 - 0.0
25/04:30pm 12.9 5.1 2.7 50 4.5 WNW 33 52 18 28 1010.4 - 0.0
25/04:00pm 13.4 5.2 2.6 48 4.8 WNW 35 70 19 38 1010.0 - 0.0
25/03:30pm 13.7 4.7 2.6 47 4.9 WNW 39 61 21 33 1009.4 - 0.0
25/03:00pm 14.1 4.4 3.0 47 5.0 WNW 43 61 23 33 1009.2 1009.3 0.0
25/02:30pm 14.2 4.4 2.5 45 5.2 WNW 43 61 23 33 1009.2 - 0.0
25/02:18pm 14.2 6.0 2.5 45 5.2 WNW 35 54 19 29 1009.3 - 0.0
25/02:00pm 14.2 5.6 2.8 46 5.1 WNW 37 52 20 28 1009.4 - 0.0
25/01:30pm 14.1 6.1 1.7 43 5.4 WNW 33 61 18 33 1010.0 - 0.0
25/01:00pm 14.0 4.2 2.3 45 5.2 W 43 61 23 33 1010.1 - 0.0
25/12:30pm 14.2 8.1 2.5 45 5.2 W 24 43 13 23 1010.3 - 0.0
25/12:00pm 13.9 4.2 3.7 50 4.7 W 44 59 24 32 1010.0 1010.1 0.0
25/11:30am 13.6 3.9 3.1 49 4.7 W 43 61 23 33 1010.3 - 0.0
25/11:00am 13.3 3.5 3.1 50 4.6 W 44 63 24 34 1010.6 - 0.0
25/10:30am 12.6 1.5 2.7 51 4.4 W 50 69 27 37 1010.6 - 0.0
25/10:00am 12.7 3.8 3.1 52 4.3 WNW 39 61 21 33 1010.6 - 0.0
25/09:30am 12.2 5.0 2.9 53 4.1 W 30 48 16 26 1010.8 - 0.0
25/09:00am 11.6 5.1 2.9 55 3.8 WNW 26 35 14 19 1010.4 1010.5 0.0
25/08:30am 11.2 5.1 2.8 56 3.7 W 24 35 13 19 1010.3 - 0.0
25/08:00am 10.7 3.8 2.5 57 3.5 WNW 28 46 15 25 1009.8 - 0.0
25/07:30am 9.9 3.0 2.7 61 3.1 WNW 28 46 15 25 1009.1 - 0.0
25/07:00am 9.5 0.9 2.6 62 2.9 WNW 37 56 20 30 1008.3 - 0.0
25/06:42am 9.3 0.4 2.9 64 2.7 WNW 39 65 21 35 1008.1 - 0.0
25/06:30am 9.2 1.0 2.5 63 2.8 WNW 35 48 19 26 1008.4 - 0.0
25/06:00am 9.3 1.6 2.4 62 2.9 WNW 32 41 17 22 1009.0 1009.1 0.0
25/05:42am 9.4 2.1 2.3 61 3.0 WNW 30 48 16 26 1008.9 - 0.0
25/05:30am 9.4 1.6 1.8 59 3.2 WNW 32 43 17 23 1008.7 - 0.0
25/05:00am 9.5 2.5 1.7 58 3.3 WNW 28 46 15 25 1008.3 - 0.0
25/04:47am 9.7 2.6 1.6 57 3.4 WNW 28 46 15 25 1008.2 - 0.0
25/04:30am 9.5 2.4 1.4 57 3.4 WNW 28 41 15 22 1008.0 - 0.0
25/04:00am 9.7 2.3 1.6 57 3.4 W 30 48 16 26 1007.8 - 0.0
25/03:30am 10.0 2.0 1.6 56 3.5 WNW 33 52 18 28 1007.6 - 0.0
25/03:25am 10.0 2.2 1.6 56 3.5 WNW 32 52 17 28 1007.7 - 0.0
25/03:00am 10.1 2.8 2.7 60 3.2 WNW 30 44 16 24 1007.7 1007.7 0.0
25/02:30am 10.3 2.2 3.3 62 3.1 WNW 35 54 19 29 1007.7 - 0.0
25/02:08am 9.9 1.9 3.9 66 2.7 WNW 35 57 19 31 1007.7 - 0.0
25/02:00am 10.1 2.1 4.0 66 2.7 WNW 35 52 19 28 1007.7 - 0.0
25/01:56am 9.7 2.1 4.1 68 2.5 WNW 33 52 18 28 1007.7 - 0.0
25/01:30am 9.0 2.8 4.2 72 2.1 NW 26 35 14 19 1007.7 - 0.0
25/01:00am 8.8 3.0 4.2 73 2.0 NW 24 39 13 21 1007.8 - 0.0
25/12:30am 8.9 3.0 3.9 71 2.2 NW 24 35 13 19 1008.4 - 0.0
25/12:00am 9.4 2.7 3.8 68 2.5 NW 28 43 15 23 1009.1 1009.2 0.0
 
Date/Time
EST
Temp
°C
App
Temp
°C
Dew
Point
°C
Rel
Hum
%
Delta-T
°C
Wind Press
QNH
hPa
Press
MSL
hPa
Rain since
9am
mm
Dir  Spd
km/h
Gust
km/h
Spd
kts
Gust
kts
24/11:30pm 8.9 2.9 3.5 69 2.3 NW 24 32 13 17 1009.6 - 0.0
24/11:00pm 7.5 2.8 3.0 73 1.9 NW 17 24 9 13 1010.0 - 0.0
24/10:30pm 5.7 2.1 2.7 81 1.2 NW 11 15 6 8 1010.3 - 0.0
24/10:00pm 4.3 0.5 2.0 85 0.9 NNW 11 13 6 7 1010.7 - 0.0
24/09:30pm 2.9 0.8 2.0 94 0.4 N 2 9 1 5 1010.8 - 0.0
24/09:00pm 2.7 0.8 0.4 85 0.9 CALM 0 6 0 3 1011.2 1011.3 0.0
24/08:30pm 5.4 2.3 1.5 76 1.6 N 7 9 4 5 1011.2 - 0.0
24/08:00pm 3.2 1.4 1.4 88 0.7 CALM 0 0 0 0 1011.2 - 0.0
24/07:30pm 3.5 1.7 1.1 84 0.9 CALM 0 6 0 3 1011.3 - 0.0
24/07:00pm 5.1 3.4 1.6 78 1.4 CALM 0 0 0 0 1011.4 - 0.0
24/06:30pm 6.0 4.3 1.7 74 1.7 CALM 0 0 0 0 1011.2 - 0.0
24/06:00pm 7.3 4.4 1.4 66 2.4 W 6 7 3 4 1010.9 1011.0 0.0
24/05:30pm 9.4 5.3 0.1 52 3.7 W 11 17 6 9 1010.9 - 0.0
24/05:00pm 10.4 5.1 -0.4 47 4.3 WNW 17 20 9 11 1010.9 - 0.0
24/04:30pm 11.5 6.2 -0.9 42 5.0 WNW 17 24 9 13 1010.4 - 0.0
24/04:00pm 12.2 6.8 -1.0 40 5.3 WNW 17 24 9 13 1010.0 - 0.0
24/03:30pm 12.3 6.5 -1.6 38 5.5 WNW 19 24 10 13 1010.3 - 0.0
24/03:00pm 12.5 6.1 -1.8 37 5.7 WNW 22 37 12 20 1010.9 1011.0 0.0
24/02:30pm 12.7 4.8 -1.6 37 5.7 WNW 30 46 16 25 1011.2 - 0.0
24/02:00pm 12.7 5.2 -1.2 38 5.6 W 28 39 15 21 1011.3 - 0.0
24/01:30pm 12.5 4.5 -2.1 36 5.8 WNW 30 41 16 22 1011.6 - 0.0
24/01:00pm 12.9 5.4 -1.1 38 5.7 WNW 28 39 15 21 1012.1 - 0.0
24/12:30pm 12.6 5.2 -1.0 39 5.5 WNW 28 41 15 22 1012.6 - 0.0
24/12:00pm 12.4 6.5 -0.8 40 5.4 NW 20 28 11 15 1013.3 1013.3 0.0
24/11:30am 12.4 6.6 -0.1 42 5.2 W 20 28 11 15 1013.6 - 0.0
24/11:00am 11.6 5.9 -0.9 42 5.0 WNW 19 28 10 15 1013.9 - 0.0
24/10:30am 10.9 5.3 1.2 51 4.1 NW 20 28 11 15 1014.3 - 0.0
24/10:00am 10.1 4.7 2.2 58 3.4 NW 20 28 11 15 1014.5 - 0.0
24/09:30am 8.6 2.6 1.1 59 3.1 WNW 22 28 12 15 1014.5 - 0.0
24/09:00am 7.6 1.6 0.8 62 2.7 NW 22 30 12 16 1014.4 1014.4 0.0
24/08:30am 6.9 0.9 0.8 65 2.4 WNW 22 30 12 16 1014.5 - 0.0
24/08:00am 6.0 -0.1 0.3 67 2.2 WNW 22 30 12 16 1014.2 - 0.0
24/07:30am 4.8 -1.0 0.2 72 1.8 NW 20 26 11 14 1013.8 - 0.0
24/07:00am 4.9 -0.9 0.1 71 1.8 NW 20 24 11 13 1013.8 - 0.0
24/06:30am 5.0 -0.2 -0.2 69 2.0 NW 17 20 9 11 1013.8 - 0.0
24/06:00am 5.1 -0.5 -0.3 68 2.1 WNW 19 24 10 13 1013.4 1013.4 0.0
24/05:30am 5.7 -0.1 -0.4 65 2.3 WNW 20 24 11 13 1013.4 - 0.0
24/05:00am 5.5 0.3 -0.1 67 2.1 NW 17 22 9 12 1013.3 - 0.0
24/04:30am 5.7 0.5 -0.1 66 2.2 NW 17 20 9 11 1013.1 - 0.0
24/04:00am 6.3 0.1 -0.2 63 2.5 WNW 22 28 12 15 1013.1 - 0.0
24/03:30am 5.9 0.3 0.0 66 2.3 NW 19 26 10 14 1013.0 - 0.0
24/03:00am 6.8 0.6 -0.2 61 2.7 WNW 22 30 12 16 1012.5 1012.6 0.0
24/02:30am 6.8 1.0 0.0 62 2.7 WNW 20 28 11 15 1012.6 - 0.0
24/02:00am 7.0 1.2 0.0 61 2.7 WNW 20 28 11 15 1013.0 - 0.0
24/01:30am 7.6 1.1 0.1 59 3.0 WNW 24 33 13 18 1012.8 - 0.0
24/01:00am 7.8 0.9 0.1 58 3.0 WNW 26 35 14 19 1012.8 - 0.0
24/12:30am 7.6 1.5 0.1 59 3.0 NW 22 32 12 17 1012.8 - 0.0
24/12:00am 7.1 2.3 0.1 61 2.7 NW 15 20 8 11 1012.9 1013.0 0.0
 
Date/Time
EST
Temp
°C
App
Temp
°C
Dew
Point
°C
Rel
Hum
%
Delta-T
°C
Wind Press
QNH
hPa
Press
MSL
hPa
Rain since
9am
mm
Dir  Spd
km/h
Gust
km/h
Spd
kts
Gust
kts
23/11:30pm 7.9 2.1 -0.3 56 3.2 NW 20 28 11 15 1012.4 - 0.0
23/11:00pm 7.8 4.0 -0.7 55 3.3 WNW 9 15 5 8 1012.3 - 0.0
23/10:30pm 8.5 3.6 -0.8 52 3.6 WNW 15 22 8 12 1012.2 - 0.0
23/10:00pm 8.2 3.6 -0.8 53 3.5 W 13 28 7 15 1011.8 - 0.0
23/09:30pm 8.7 3.7 -0.9 51 3.7 SW 15 20 8 11 1011.2 - 0.0
23/09:00pm 9.1 2.1 -0.5 51 3.8 W 26 37 14 20 1010.7 1010.8 0.0
23/08:30pm 9.3 3.4 -0.8 49 4.0 W 20 32 11 17 1010.7 - 0.0
23/08:00pm 9.6 2.6 -0.6 49 4.0 WNW 26 39 14 21 1010.2 - 0.0
23/07:30pm 10.0 1.8 -0.8 47 4.3 W 32 39 17 21 1009.6 - 0.0
23/07:00pm 10.0 5.1 -0.5 48 4.2 W 15 28 8 15 1009.3 - 0.0
23/06:30pm 10.2 4.4 -0.3 48 4.2 W 20 30 11 16 1008.4 - 0.0
23/06:00pm 10.6 4.0 -0.2 47 4.4 W 24 44 13 24 1007.5 1007.5 0.0
23/05:31pm 10.9 3.6 0.0 47 4.4 W 28 48 15 26 1006.4 - 0.0
23/05:30pm 10.8 4.0 0.5 49 4.2 W 26 37 14 20 1006.5 - 0.0
23/05:26pm 10.8 4.4 0.8 50 4.2 WSW 24 37 13 20 1006.4 - 0.0
23/05:00pm 11.2 1.9 0.9 49 4.3 W 39 57 21 31 1005.5 - 0.0
23/04:53pm 11.6 3.2 1.3 49 4.4 W 35 57 19 31 1005.5 - 0.0
23/04:30pm 12.0 4.9 1.6 49 4.4 W 28 43 15 23 1005.1 - 0.0
23/04:01pm 12.8 4.0 1.2 45 5.0 W 37 56 20 30 1004.3 - 0.0
23/04:00pm 12.8 3.6 1.5 46 4.9 W 39 56 21 30 1004.4 - 0.0
23/03:56pm 12.9 4.6 2.2 48 4.7 W 35 44 19 24 1004.3 - 0.0
23/03:30pm 13.2 4.1 1.8 46 5.0 WNW 39 57 21 31 1003.8 - 0.0
23/03:00pm 13.7 3.8 1.4 43 5.3 W 43 63 23 34 1003.3 1003.3 0.0
23/02:31pm 13.7 2.1 1.4 43 5.3 W 52 70 28 38 1002.4 - 0.0
23/02:30pm 13.6 1.6 1.3 43 5.3 W 54 70 29 38 1002.2 - 0.0
23/02:12pm 14.3 4.3 1.2 41 5.7 W 43 67 23 36 1002.1 - 0.0
23/02:10pm 14.4 5.4 2.3 44 5.4 W 39 52 21 28 1002.1 - 0.0
23/02:05pm 14.3 1.7 1.6 42 5.5 W 57 76 31 41 1002.0 - 0.0
23/02:03pm 14.4 6.4 1.7 42 5.6 W 33 65 18 35 1001.9 - 0.0
23/02:00pm 14.5 6.7 1.8 42 5.6 WNW 32 46 17 25 1001.9 - 0.0
23/01:57pm 14.7 7.0 3.2 46 5.2 W 33 46 18 25 1001.9 - 0.0
23/01:44pm 14.1 1.6 2.0 44 5.3 W 57 76 31 41 1001.7 - 0.0
23/01:41pm 14.1 0.4 1.7 43 5.4 W 63 76 34 41 1001.6 - 0.0
23/01:30pm 14.2 4.3 2.5 45 5.2 W 44 70 24 38 1001.4 - 0.0
23/01:00pm 14.1 4.1 2.0 44 5.3 W 44 80 24 43 1001.3 - 0.0
23/12:30pm 14.1 5.5 2.7 46 5.1 W 37 70 20 38 1001.2 - 0.0
23/12:04pm 13.6 4.2 2.5 47 4.9 W 41 85 22 46 1001.0 - 0.0
23/12:00pm 13.5 4.4 1.8 45 5.1 WNW 39 63 21 34 1001.1 1001.2 0.0
23/11:30am 13.2 1.3 2.4 48 4.8 W 54 76 29 41 1001.1 - 0.0
23/11:00am 13.2 1.3 2.4 48 4.8 WNW 54 82 29 44 1001.0 - 0.0
23/10:30am 12.7 0.8 2.3 49 4.5 WNW 54 82 29 44 1001.1 - 0.0
23/10:00am 12.6 2.3 2.5 50 4.4 WNW 46 69 25 37 1001.7 - 0.0
23/09:30am 12.3 2.4 3.0 53 4.1 W 44 67 24 36 1001.3 - 0.0
23/09:00am 12.1 1.8 2.6 52 4.2 W 46 65 25 35 1001.2 1001.3 10.8
23/08:30am 11.7 2.7 2.7 54 3.9 W 39 72 21 39 1001.0 - 10.8
23/08:00am 11.5 3.1 1.5 50 4.2 W 35 59 19 32 1001.1 - 10.8
23/07:30am 11.3 0.8 1.5 51 4.2 WNW 46 76 25 41 1000.2 - 10.8
23/07:00am 11.1 1.2 1.6 52 4.0 WNW 43 63 23 34 999.9 - 10.8
23/06:30am 11.5 1.6 1.5 50 4.2 WNW 43 63 23 34 999.5 - 10.8
23/06:06am 11.9 3.4 2.9 54 4.0 WNW 37 56 20 30 999.3 - 10.8
23/06:00am 12.1 3.7 3.6 56 3.8 W 37 50 20 27 998.8 998.8 10.8
23/05:39am 12.2 4.5 3.4 55 3.9 WNW 33 52 18 28 998.4 - 10.8
23/05:30am 12.4 4.3 3.1 53 4.1 WNW 35 52 19 28 998.2 - 10.8
23/05:00am 12.5 4.6 4.5 58 3.7 W 35 56 19 30 997.9 - 10.8
23/04:32am 13.1 4.5 4.5 56 4.0 WNW 39 63 21 34 997.7 - 10.8
23/04:30am 13.0 4.4 4.9 58 3.8 WNW 39 54 21 29 997.7 - 10.8
23/04:03am 12.9 5.6 5.6 61 3.4 WNW 33 56 18 30 997.5 - 10.8
23/04:00am 12.7 5.1 5.6 62 3.3 WNW 35 50 19 27 997.6 - 10.8
23/03:30am 13.2 3.5 5.9 61 3.5 WNW 46 76 25 41 997.6 - 10.8
23/03:00am 14.5 5.8 5.8 56 4.2 W 41 72 22 39 997.3 997.3 10.8
23/02:30am 15.5 8.1 6.8 56 4.3 W 35 61 19 33 996.9 - 10.8
23/02:00am 16.2 7.8 5.8 50 5.0 W 39 61 21 33 996.2 - 10.8
23/01:45am 15.8 10.0 7.8 59 4.0 WNW 28 50 15 27 996.2 - 10.8
23/01:30am 16.0 10.1 7.7 58 4.2 W 28 39 15 21 996.3 - 10.8
23/01:02am 15.9 9.1 7.9 59 4.0 W 33 52 18 28 996.6 - 10.8
23/01:00am 15.9 8.8 8.2 60 3.9 W 35 52 19 28 996.7 - 10.8
23/12:38am 16.6 8.7 7.8 56 4.5 W 39 57 21 31 996.8 - 10.8
23/12:30am 16.4 8.9 8.1 58 4.2 WNW 37 52 20 28 996.8 - 10.8
23/12:00am 16.9 9.9 8.6 58 4.3 WNW 35 54 19 29 996.7 996.7 10.8
 
Date/Time
EST
Temp
°C
App
Temp
°C
Dew
Point
°C
Rel
Hum
%
Delta-T
°C
Wind Press
QNH
hPa
Press
MSL
hPa
Rain since
9am
mm
Dir  Spd
km/h
Gust
km/h
Spd
kts
Gust
kts
22/11:50pm 17.3 9.5 8.2 55 4.7 WNW 39 67 21 36 996.6 - 10.8
22/11:30pm 17.0 11.7 9.9 63 3.8 WNW 28 48 15 26 996.8 - 10.8
22/11:29pm 16.9 11.3 10.1 64 3.6 WNW 30 48 16 26 996.8 - 10.8
22/11:00pm 17.5 14.3 11.3 67 3.4 NW 19 32 10 17 996.6 - 10.8
22/10:30pm 16.9 15.5 14.4 85 1.4 NW 15 20 8 11 996.9 - 10.8
22/10:21pm 17.1 16.4 15.3 89 1.1 NW 13 20 7 11 997.1 - 10.8
22/10:04pm 16.6 15.0 16.4 99 0.1 SW 20 32 11 17 997.2 - 10.6
22/10:00pm 16.6 14.2 16.4 99 0.1 SW 24 32 13 17 997.2 - 10.2

Latest Capital City Observations: Canberra | Sydney | Melbourne | Brisbane | Adelaide | Perth | Hobart | Darwin

Other Formats:

Comma delimited format used in spreadsheet applications
http://www.bom.gov.au/fwo/IDN60903/IDN60903.94750.axf

JavaScript Object Notation format (JSON) in row-major order
http://www.bom.gov.au/fwo/IDN60903/IDN60903.94750.json